Time;durP1;ratioP1;P1;durP2;ratioP2;P2;SDS_P1;SDS_P2;PMS_P1;PMS_P2;Temp;Humidity;BMP_temperature;BMP_pressure;BME280_temperature;BME280_humidity;BME280_pressure;Samples;Min_cycle;Max_cycle;Signal;HPM_P1;HPM_P2
2022/09/27 00:01:13;;;;;;;4.47;2.30;;;;;;;12.19;56.68;98387.16;10124951;29;20221;-83
2022/09/27 00:06:35;;;;;;;5.23;1.80;;;;;;;12.64;55.98;98395.09;10120943;29;20213;-83
2022/09/27 00:11:58;;;;;;;5.63;1.83;;;;;;;13.16;53.98;98407.00;10151530;29;20209;-83
2022/09/27 00:17:20;;;;;;;3.60;1.43;;;;;;;12.32;56.22;98413.88;10136727;29;20213;-84
2022/09/27 00:22:43;;;;;;;4.83;1.20;;;;;;;12.65;54.84;98415.69;10112064;29;20289;-82
2022/09/27 00:28:05;;;;;;;2.30;1.03;;;;;;;11.94;56.11;98421.69;10128881;29;20253;-82
2022/09/27 00:33:28;;;;;;;2.87;0.83;;;;;;;12.93;53.80;98429.97;10121434;29;20205;-82
2022/09/27 00:38:50;;;;;;;3.63;1.13;;;;;;;12.35;54.65;98430.03;10125521;29;20229;-82
2022/09/27 00:44:25;;;;;;;1.47;0.50;;;;;;;11.74;56.57;98442.88;10086113;29;20206;-82
2022/09/27 00:49:54;;;;;;;2.83;0.80;;;;;;;12.42;54.76;98447.06;10129963;29;20193;-81
2022/09/27 00:55:19;;;;;;;3.00;0.80;;;;;;;12.67;54.01;98436.72;10132675;29;20208;-82
2022/09/27 01:00:44;;;;;;;2.97;1.10;;;;;;;11.99;55.62;98441.06;10120492;29;20229;-82
2022/09/27 01:06:08;;;;;;;5.03;1.33;;;;;;;12.68;53.52;98443.97;10124785;29;20205;-82
2022/09/27 01:12:04;;;;;;;4.97;1.40;;;;;;;11.52;58.20;98452.34;10110755;29;20201;-82
2022/09/27 01:17:45;;;;;;;2.40;1.43;;;;;;;12.14;55.71;98446.81;10144359;29;20225;-83
2022/09/27 01:23:44;;;;;;;3.97;2.20;;;;;;;12.68;53.85;98458.13;10139193;29;20212;-82
2022/09/27 01:29:14;;;;;;;7.73;2.90;;;;;;;12.31;55.12;98451.81;10124753;29;20217;-82
2022/09/27 01:35:01;;;;;;;7.87;3.20;;;;;;;12.54;54.68;98454.41;10092176;29;20262;-82
2022/09/27 01:40:53;;;;;;;6.90;3.73;;;;;;;12.15;55.77;98457.72;10092948;29;20332;-83
2022/09/27 01:47:00;;;;;;;7.30;3.20;;;;;;;12.41;54.34;98453.09;10101811;29;20202;-83
2022/09/27 01:53:02;;;;;;;5.83;4.23;;;;;;;12.58;53.41;98461.69;10099075;29;20209;-82
2022/09/27 01:58:56;;;;;;;7.07;3.93;;;;;;;12.20;54.04;98465.03;10108729;29;20235;-83
2022/09/27 02:04:31;;;;;;;8.80;4.90;;;;;;;12.67;53.11;98458.50;10097863;29;20210;-84
2022/09/27 02:10:15;;;;;;;8.03;4.73;;;;;;;11.71;55.76;98465.44;10098651;29;20273;-83
2022/09/27 02:15:52;;;;;;;6.23;5.10;;;;;;;11.90;55.50;98466.00;10103900;29;20568;-83
2022/09/27 02:21:19;;;;;;;10.67;6.53;;;;;;;11.78;55.96;98469.13;10094799;29;20234;-83
2022/09/27 02:26:44;;;;;;;6.40;5.80;;;;;;;12.67;53.59;98467.00;10103474;29;20246;-83
2022/09/27 02:32:06;;;;;;;8.10;6.63;;;;;;;11.90;55.15;98466.00;10101018;29;20257;-83
2022/09/27 02:37:29;;;;;;;11.90;6.80;;;;;;;12.74;53.30;98469.06;10093242;29;20214;-82
2022/09/27 02:42:51;;;;;;;7.93;6.80;;;;;;;12.09;54.46;98467.78;10099140;29;20221;-83
2022/09/27 02:48:31;;;;;;;11.60;8.13;;;;;;;12.21;55.32;98480.78;10103708;29;20261;-83
2022/09/27 02:54:07;;;;;;;9.93;6.80;;;;;;;11.61;55.31;98490.31;10102663;29;20202;-82
2022/09/27 02:59:57;;;;;;;7.37;5.80;;;;;;;11.29;57.16;98494.78;10096552;29;20210;-82
2022/09/27 03:05:52;;;;;;;6.17;5.07;;;;;;;11.15;57.00;98495.44;10117852;29;20206;-82
2022/09/27 03:11:14;;;;;;;6.67;4.70;;;;;;;11.48;55.36;98499.41;10110237;29;20201;-82
2022/09/27 03:16:36;;;;;;;5.93;4.07;;;;;;;12.31;53.03;98491.34;10097622;29;20226;-82
2022/09/27 03:22:34;;;;;;;7.40;3.80;;;;;;;11.51;54.79;98499.50;10108715;29;20221;-82
2022/09/27 03:27:56;;;;;;;5.03;3.73;;;;;;;12.52;52.85;98499.19;10079595;29;20231;-82
2022/09/27 03:33:19;;;;;;;6.33;3.80;;;;;;;12.22;53.79;98505.81;10100607;29;20261;-83
2022/09/27 03:38:44;;;;;;;5.10;3.77;;;;;;;10.60;57.41;98521.63;10087198;29;20214;-82
2022/09/27 03:44:07;;;;;;;7.83;5.20;;;;;;;12.19;54.11;98511.44;10115778;29;20240;-82
2022/09/27 03:49:29;;;;;;;7.73;4.97;;;;;;;11.95;54.92;98512.84;10104457;29;20201;-82
2022/09/27 03:54:51;;;;;;;8.00;5.63;;;;;;;12.04;54.36;98515.34;10087656;29;20239;-82
2022/09/27 04:00:13;;;;;;;6.20;4.10;;;;;;;11.84;53.88;98517.59;10113298;29;20218;-81
2022/09/27 04:05:36;;;;;;;5.53;4.13;;;;;;;11.85;53.72;98514.38;10100891;29;20273;-81
2022/09/27 04:11:08;;;;;;;6.07;3.93;;;;;;;11.91;53.74;98523.28;10081590;29;20803;-82
2022/09/27 04:16:32;;;;;;;5.50;3.30;;;;;;;10.70;57.01;98524.59;10152813;29;20233;-81
2022/09/27 04:22:12;;;;;;;6.33;3.23;;;;;;;12.14;53.35;98526.72;10137061;29;20292;-82
2022/09/27 04:27:34;;;;;;;6.83;3.40;;;;;;;11.62;54.42;98531.44;10115594;29;20316;-81
2022/09/27 04:32:57;;;;;;;5.00;2.90;;;;;;;11.60;53.28;98530.25;10113591;29;20669;-81
2022/09/27 04:38:45;;;;;;;7.80;3.90;;;;;;;11.41;53.92;98544.47;10101680;29;20625;-81
2022/09/27 04:44:10;;;;;;;8.43;4.90;;;;;;;11.50;53.78;98542.19;10076790;29;20233;-81
2022/09/27 04:49:32;;;;;;;11.40;7.87;;;;;;;10.87;55.75;98560.69;10088173;29;20202;-81
2022/09/27 04:54:54;;;;;;;15.60;12.00;;;;;;;10.93;55.80;98561.19;10106765;29;20262;-81
2022/09/27 05:00:19;;;;;;;16.07;13.67;;;;;;;10.88;55.91;98572.78;10089565;29;20353;-81
2022/09/27 05:06:01;;;;;;;16.83;14.63;;;;;;;12.14;52.72;98562.63;10068392;29;20201;-81
2022/09/27 05:11:25;;;;;;;21.97;14.37;;;;;;;12.06;53.77;98572.22;10066903;29;20311;-81
2022/09/27 05:16:49;;;;;;;16.83;13.70;;;;;;;11.86;54.02;98586.53;10078904;29;20258;-81
2022/09/27 05:22:30;;;;;;;15.37;13.70;;;;;;;12.09;53.12;98582.75;10080916;29;20711;-81
2022/09/27 05:27:53;;;;;;;22.73;15.50;;;;;;;11.59;54.19;98579.41;10080497;29;20233;-81
2022/09/27 05:33:15;;;;;;;17.33;13.27;;;;;;;11.88;53.30;98575.69;10083627;29;20205;-81
2022/09/27 05:38:59;;;;;;;19.63;14.20;;;;;;;12.26;52.21;98585.72;10090337;29;20611;-81
2022/09/27 05:44:22;;;;;;;14.40;10.80;;;;;;;11.48;53.75;98595.34;10106536;29;20245;-81
2022/09/27 05:49:44;;;;;;;14.00;10.57;;;;;;;11.01;55.07;98593.91;10097250;29;20242;-81
2022/09/27 05:55:06;;;;;;;16.77;8.20;;;;;;;11.11;54.35;98601.69;10096764;29;20202;-81
2022/09/27 06:00:29;;;;;;;11.53;6.70;;;;;;;11.35;54.38;98608.06;10113187;29;20206;-81
2022/09/27 06:06:11;;;;;;;8.63;6.30;;;;;;;10.53;56.13;98616.09;10089943;29;20209;-80
2022/09/27 06:11:33;;;;;;;7.00;6.03;;;;;;;10.88;55.63;98615.06;10117771;29;20253;-80
2022/09/27 06:16:55;;;;;;;9.13;6.33;;;;;;;10.59;55.89;98621.44;10102159;29;20245;-81
2022/09/27 06:22:20;;;;;;;9.70;5.93;;;;;;;11.06;54.04;98618.97;10118160;29;20271;-80
2022/09/27 06:27:42;;;;;;;10.13;5.60;;;;;;;11.75;52.94;98619.47;10103977;29;20254;-80
2022/09/27 06:33:11;;;;;;;6.77;4.73;;;;;;;11.38;52.64;98615.75;10103063;29;20206;-80
2022/09/27 06:38:36;;;;;;;7.27;4.77;;;;;;;11.13;54.27;98623.88;10105351;29;20210;-80
2022/09/27 06:44:04;;;;;;;7.77;4.67;;;;;;;10.66;54.68;98627.19;10118312;29;20576;-80
2022/09/27 06:49:45;;;;;;;9.77;4.77;;;;;;;11.04;53.63;98632.63;10102251;29;20203;-79
2022/09/27 06:55:08;;;;;;;6.83;3.30;;;;;;;10.16;56.02;98638.38;10127737;29;20205;-79
2022/09/27 07:00:30;;;;;;;5.67;2.70;;;;;;;11.66;51.98;98646.38;10100166;29;20293;-79
2022/09/27 07:06:02;;;;;;;6.27;2.57;;;;;;;11.55;52.87;98652.72;10100318;29;20265;-79
2022/09/27 07:11:35;;;;;;;5.27;2.10;;;;;;;11.37;53.43;98670.56;10107159;29;20186;-80
2022/09/27 07:16:58;;;;;;;6.53;2.27;;;;;;;11.05;54.28;98673.72;10087531;29;20286;-79
2022/09/27 07:22:23;;;;;;;5.90;1.77;;;;;;;11.38;52.64;98681.47;10086531;29;20225;-80
2022/09/27 07:27:46;;;;;;;4.07;1.90;;;;;;;11.41;51.39;98685.53;10119426;29;20646;-80
2022/09/27 07:33:09;;;;;;;2.47;1.70;;;;;;;11.16;52.73;98682.34;10118789;29;20230;-79
2022/09/27 07:38:31;;;;;;;4.37;1.70;;;;;;;11.13;52.70;98692.38;10144915;29;20205;-79
2022/09/27 07:43:56;;;;;;;3.40;1.93;;;;;;;10.85;52.92;98687.09;10127298;29;20669;-79
2022/09/27 07:49:38;;;;;;;2.83;1.50;;;;;;;11.52;50.94;98694.97;10129710;29;20205;-79
2022/09/27 07:55:17;;;;;;;3.20;1.83;;;;;;;11.05;52.26;98701.91;10128847;29;20205;-79
2022/09/27 08:00:46;;;;;;;6.93;1.80;;;;;;;10.97;52.32;98711.44;10091725;29;20234;-79
2022/09/27 08:06:08;;;;;;;3.33;1.40;;;;;;;11.01;52.43;98717.97;10096984;29;20243;-79
2022/09/27 08:11:31;;;;;;;3.23;1.30;;;;;;;10.96;52.93;98715.44;10098397;29;20202;-78
2022/09/27 08:16:53;;;;;;;5.57;1.53;;;;;;;10.18;54.24;98728.09;10108973;29;20220;-79
2022/09/27 08:22:47;;;;;;;2.43;1.40;;;;;;;11.66;50.78;98719.75;10098764;29;20249;-79
2022/09/27 08:28:13;;;;;;;4.97;2.00;;;;;;;11.02;52.41;98732.88;10099449;29;20206;-79
2022/09/27 08:33:40;;;;;;;3.80;1.63;;;;;;;11.59;50.67;98741.06;10114384;29;20202;-79
2022/09/27 08:39:03;;;;;;;6.07;1.67;;;;;;;11.94;50.33;98740.72;10111403;29;20281;-79
2022/09/27 08:44:44;;;;;;;4.03;1.70;;;;;;;11.72;52.47;98746.47;10099116;29;20226;-79
2022/09/27 08:50:27;;;;;;;3.07;2.13;;;;;;;11.62;50.87;98742.28;10099059;29;20266;-78
2022/09/27 08:55:51;;;;;;;3.30;2.47;;;;;;;10.80;54.03;98745.78;10098240;29;20670;-79
2022/09/27 09:01:16;;;;;;;3.20;2.30;;;;;;;11.04;53.57;98748.22;10114005;29;20225;-79
2022/09/27 09:07:00;;;;;;;2.93;1.60;;;;;;;11.82;51.43;98749.44;10095517;29;20209;-79
2022/09/27 09:12:45;;;;;;;1.67;1.30;;;;;;;11.30;51.41;98746.63;10067977;29;20235;-79
2022/09/27 09:18:31;;;;;;;3.30;1.63;;;;;;;11.62;51.65;98750.75;10097979;29;20214;-78
2022/09/27 09:24:31;;;;;;;3.47;1.70;;;;;;;11.19;52.84;98747.28;10098330;29;20230;-78
2022/09/27 09:30:04;;;;;;;1.83;1.17;;;;;;;11.95;49.68;98750.81;10104579;29;20548;-79
2022/09/27 09:35:40;;;;;;;4.20;1.60;;;;;;;11.81;50.21;98752.63;10090236;29;20214;-79
2022/09/27 09:41:10;;;;;;;2.43;0.67;;;;;;;11.32;50.90;98753.50;10099393;29;20529;-78
2022/09/27 09:46:35;;;;;;;2.50;1.00;;;;;;;12.09;49.98;98755.03;10117277;29;20266;-78
2022/09/27 09:52:05;;;;;;;3.40;1.10;;;;;;;11.19;52.80;98740.81;10105339;29;20616;-78
2022/09/27 09:57:32;;;;;;;2.23;1.10;;;;;;;11.43;51.59;98746.03;10105179;29;20205;-78
2022/09/27 10:02:59;;;;;;;3.10;1.60;;;;;;;11.70;52.02;98749.66;10092289;29;20876;-78
2022/09/27 10:08:23;;;;;;;1.70;1.60;;;;;;;12.32;49.87;98744.41;10104290;29;20214;-78
2022/09/27 10:14:09;;;;;;;2.67;1.23;;;;;;;12.29;49.71;98742.34;10104427;29;20222;-79
2022/09/27 10:19:38;;;;;;;1.33;0.97;;;;;;;11.97;50.49;98744.78;10104115;29;20198;-79
2022/09/27 10:25:02;;;;;;;2.27;1.00;;;;;;;11.09;52.50;98745.06;10098939;29;20572;-78
2022/09/27 10:30:30;;;;;;;1.47;0.80;;;;;;;13.16;47.55;98740.81;10091386;29;20255;-78
2022/09/27 10:35:52;;;;;;;0.70;0.70;;;;;;;11.49;51.76;98738.88;10103865;29;20198;-78
2022/09/27 10:41:44;;;;;;;1.07;1.00;;;;;;;12.86;49.12;98740.16;10103468;29;20218;-78
2022/09/27 10:47:21;;;;;;;1.60;1.30;;;;;;;11.25;52.07;98734.47;10097065;29;20557;-78
2022/09/27 10:53:14;;;;;;;1.43;1.33;;;;;;;11.39;50.52;98724.59;10098635;29;20503;-79
2022/09/27 10:58:44;;;;;;;4.27;1.60;;;;;;;12.90;48.55;98729.69;10129787;29;20201;-79
2022/09/27 11:04:18;;;;;;;3.37;1.50;;;;;;;13.04;48.96;98724.13;10128638;29;20225;-79
2022/09/27 11:09:48;;;;;;;1.60;1.30;;;;;;;11.65;50.41;98718.94;10103832;29;20209;-78
2022/09/27 11:15:16;;;;;;;1.80;1.13;;;;;;;13.23;47.68;98718.28;10102219;29;20226;-79
2022/09/27 11:20:45;;;;;;;1.80;1.00;;;;;;;13.36;47.45;98710.28;10101343;29;20209;-78
2022/09/27 11:26:30;;;;;;;1.40;1.07;;;;;;;13.60;46.87;98705.97;10088334;29;20222;-78
2022/09/27 11:32:11;;;;;;;1.37;1.27;;;;;;;12.56;49.64;98706.34;10106681;29;20256;-78
2022/09/27 11:37:51;;;;;;;1.70;0.80;;;;;;;13.87;45.47;98690.34;10079730;29;20206;-78
2022/09/27 11:43:26;;;;;;;1.73;0.70;;;;;;;11.88;49.08;98699.91;10105354;29;20221;-80
2022/09/27 11:49:34;;;;;;;2.73;0.63;;;;;;;12.95;46.22;98696.19;10139017;29;20205;-79
2022/09/27 11:55:45;;;;;;;2.30;0.50;;;;;;;13.67;45.54;98680.53;10134352;29;20201;-79
2022/09/27 12:01:44;;;;;;;1.90;0.47;;;;;;;12.31;47.58;98689.09;10026130;29;20205;-78
2022/09/27 12:07:26;;;;;;;1.70;0.40;;;;;;;12.22;46.24;98703.53;10088444;29;20206;-78
2022/09/27 12:12:53;;;;;;;2.83;0.63;;;;;;;11.40;47.99;98693.19;10126711;29;20570;-78
2022/09/27 12:18:29;;;;;;;1.93;0.90;;;;;;;12.23;45.93;98704.34;10099295;29;20218;-79
2022/09/27 12:24:21;;;;;;;1.00;0.57;;;;;;;12.36;46.27;98702.91;10105269;29;20314;-78
2022/09/27 12:30:05;;;;;;;0.60;0.50;;;;;;;12.64;45.24;98691.88;10099080;29;20254;-78
2022/09/27 12:35:29;;;;;;;2.20;0.80;;;;;;;13.08;45.10;98695.88;10100490;29;20205;-79
2022/09/27 12:40:54;;;;;;;2.00;1.07;;;;;;;12.43;46.46;98697.31;10098691;29;20210;-79
2022/09/27 12:46:48;;;;;;;4.93;1.00;;;;;;;13.23;44.92;98689.97;10097986;29;20213;-79
2022/09/27 12:52:21;;;;;;;3.57;1.03;;;;;;;13.61;43.13;98688.59;10136453;29;20205;-79
2022/09/27 12:58:22;;;;;;;2.30;1.00;;;;;;;13.36;44.60;98696.13;10116881;29;20206;-79
2022/09/27 13:03:55;;;;;;;0.50;0.50;;;;;;;12.71;47.31;98712.94;10098483;29;20226;-79
2022/09/27 13:09:41;;;;;;;1.23;0.80;;;;;;;12.06;49.23;98710.59;10117998;29;20212;-79
2022/09/27 13:15:12;;;;;;;0.80;0.80;;;;;;;11.78;49.63;98714.69;10155552;29;20276;-79
2022/09/27 13:20:35;;;;;;;0.93;0.60;;;;;;;11.84;48.74;98718.81;10129387;29;20205;-79
2022/09/27 13:26:22;;;;;;;0.73;0.50;;;;;;;13.01;46.79;98705.16;10139573;29;20250;-78
2022/09/27 13:31:56;;;;;;;0.77;0.77;;;;;;;12.97;47.14;98709.94;10134261;29;20721;-79
2022/09/27 13:37:58;;;;;;;2.90;1.70;;;;;;;12.90;48.12;98704.25;10136643;29;20229;-79
2022/09/27 13:43:36;;;;;;;2.17;1.83;;;;;;;12.93;48.07;98703.44;10112471;29;20229;-79
2022/09/27 13:49:23;;;;;;;2.50;1.93;;;;;;;12.15;49.12;98709.09;10129966;29;20265;-78
2022/09/27 13:54:57;;;;;;;2.37;2.17;;;;;;;12.89;47.90;98708.28;10103635;29;20217;-78
2022/09/27 14:00:21;;;;;;;3.07;2.20;;;;;;;12.25;48.11;98713.25;10110741;29;20293;-78
2022/09/27 14:05:52;;;;;;;2.93;2.27;;;;;;;12.14;49.12;98709.47;10115267;29;20294;-78
2022/09/27 14:11:21;;;;;;;2.37;1.80;;;;;;;12.23;47.68;98710.81;10136685;29;20205;-80
2022/09/27 14:16:46;;;;;;;3.50;1.30;;;;;;;12.00;47.43;98707.28;10117658;29;20269;-80
2022/09/27 14:22:13;;;;;;;3.07;1.20;;;;;;;12.23;45.86;98712.84;10115710;29;20630;-79
2022/09/27 14:27:37;;;;;;;1.77;1.30;;;;;;;12.81;43.65;98706.56;10107158;29;20250;-78
2022/09/27 14:33:31;;;;;;;1.07;0.80;;;;;;;12.97;43.58;98704.28;10087073;29;20296;-78
2022/09/27 14:38:56;;;;;;;1.37;1.07;;;;;;;12.42;45.77;98718.31;10105688;29;20265;-78
2022/09/27 14:44:21;;;;;;;0.70;0.70;;;;;;;13.10;43.27;98708.44;10091530;29;20264;-78
2022/09/27 14:49:47;;;;;;;1.60;0.90;;;;;;;12.54;44.18;98717.22;10085487;29;20277;-78
2022/09/27 14:55:20;;;;;;;2.17;0.60;;;;;;;12.49;44.28;98718.41;10094093;29;20226;-80
2022/09/27 15:00:45;;;;;;;1.97;1.20;;;;;;;13.47;43.49;98716.00;10073216;29;20242;-80
2022/09/27 15:06:08;;;;;;;1.90;0.93;;;;;;;13.72;44.01;98712.09;10087744;29;20286;-77
2022/09/27 15:11:32;;;;;;;2.17;1.03;;;;;;;13.48;43.25;98723.28;10102797;29;20233;-80
2022/09/27 15:16:55;;;;;;;3.23;1.03;;;;;;;12.11;45.54;98730.03;10094244;29;20624;-79
2022/09/27 15:22:34;;;;;;;3.03;0.80;;;;;;;12.61;44.07;98726.59;10085222;29;20260;-80
2022/09/27 15:27:58;;;;;;;1.93;0.80;;;;;;;13.15;42.90;98721.41;10088053;29;20281;-80
2022/09/27 15:33:22;;;;;;;3.33;1.10;;;;;;;13.11;42.78;98731.88;10082047;29;20876;-80
2022/09/27 15:38:46;;;;;;;1.80;1.27;;;;;;;12.31;46.38;98728.66;10084601;29;20304;-80
2022/09/27 15:44:37;;;;;;;1.67;1.53;;;;;;;12.28;47.51;98735.06;10087030;29;20642;-80
2022/09/27 15:50:25;;;;;;;3.67;1.53;;;;;;;12.48;47.98;98733.72;10110225;29;20202;-80
2022/09/27 15:55:49;;;;;;;3.23;2.10;;;;;;;12.17;47.56;98739.78;10098991;29;20198;-81
2022/09/27 16:01:16;;;;;;;1.90;0.70;;;;;;;12.04;47.69;98744.06;10102675;29;20224;-78
2022/09/27 16:06:41;;;;;;;1.47;1.07;;;;;;;12.23;47.45;98739.06;10090912;29;20241;-80
2022/09/27 16:12:03;;;;;;;2.13;0.97;;;;;;;13.08;45.32;98733.47;10101367;29;20233;-80
2022/09/27 16:17:25;;;;;;;1.80;1.00;;;;;;;12.08;47.07;98736.44;10084819;29;20584;-80
2022/09/27 16:22:47;;;;;;;3.20;0.40;;;;;;;11.97;47.18;98736.31;10083646;29;20242;-80
2022/09/27 16:28:12;;;;;;;1.83;0.63;;;;;;;11.50;48.65;98739.69;10090146;29;20616;-80
2022/09/27 16:33:35;;;;;;;1.83;0.80;;;;;;;10.53;50.22;98747.69;10095530;29;20736;-80
2022/09/27 16:38:57;;;;;;;4.77;2.50;;;;;;;12.52;45.03;98734.56;10102860;29;20226;-80
2022/09/27 16:44:19;;;;;;;3.43;0.73;;;;;;;12.79;44.71;98734.41;10089031;29;20261;-81
2022/09/27 16:55:22;;;;;;;2.63;0.83;;;;;;;11.71;47.04;98740.00;10088185;29;20225;-81
2022/09/27 17:00:44;;;;;;;2.63;1.00;;;;;;;12.11;46.07;98738.50;10088458;29;20599;-80
2022/09/27 17:06:07;;;;;;;0.73;0.40;;;;;;;11.61;47.83;98729.38;10103002;29;20253;-80
2022/09/27 17:11:29;;;;;;;3.40;0.50;;;;;;;11.17;48.75;98744.00;10090218;29;20286;-80
2022/09/27 17:16:51;;;;;;;2.23;0.90;;;;;;;10.85;49.47;98742.66;10098932;29;20301;-80
2022/09/27 17:22:13;;;;;;;2.60;0.90;;;;;;;11.19;48.61;98730.34;10088343;29;20237;-80
2022/09/27 17:27:35;;;;;;;5.50;1.73;;;;;;;11.96;47.43;98724.22;10087922;29;20551;-80
2022/09/27 17:32:57;;;;;;;5.00;1.80;;;;;;;11.12;49.64;98718.94;10071225;29;20232;-80
2022/09/27 17:38:19;;;;;;;5.07;2.07;;;;;;;11.48;49.05;98711.00;10100420;29;20239;-80
2022/09/27 17:43:48;;;;;;;4.10;2.70;;;;;;;12.05;47.75;98714.63;10087154;29;20257;-81
2022/09/27 17:54:54;;;;;;;2.50;1.30;;;;;;;11.53;48.93;98708.72;10092894;29;20235;-81
2022/09/27 18:00:17;;;;;;;4.20;1.40;;;;;;;11.96;47.38;98695.97;10094727;29;20233;-80
2022/09/27 18:05:39;;;;;;;2.47;1.90;;;;;;;11.46;48.51;98704.97;10101803;29;20703;-80
2022/09/27 18:11:04;;;;;;;2.23;1.20;;;;;;;11.77;46.42;98696.13;10085191;29;20257;-81
2022/09/27 18:16:31;;;;;;;3.97;0.97;;;;;;;11.97;45.39;98694.78;10108859;29;20306;-80
2022/09/27 18:21:53;;;;;;;3.00;0.80;;;;;;;11.91;44.83;98690.66;10093966;29;20226;-80
2022/09/27 18:27:17;;;;;;;2.33;0.83;;;;;;;11.94;44.25;98689.91;10091030;29;20675;-80
2022/09/27 18:32:39;;;;;;;0.63;0.50;;;;;;;11.76;44.52;98690.88;10101314;29;20281;-80
2022/09/27 18:38:01;;;;;;;2.47;1.00;;;;;;;11.95;44.65;98688.72;10091393;29;20312;-80
2022/09/27 18:43:24;;;;;;;4.60;1.90;;;;;;;11.17;46.92;98681.97;10092901;29;20302;-80
2022/09/27 18:48:46;;;;;;;3.97;1.17;;;;;;;11.79;46.35;98685.28;10102167;29;20266;-81
2022/09/27 18:54:16;;;;;;;3.30;1.10;;;;;;;12.13;44.21;98674.78;10103052;29;20190;-80
2022/09/27 18:59:38;;;;;;;3.37;1.33;;;;;;;12.13;44.75;98676.78;10097904;29;20540;-81
2022/09/27 19:05:00;;;;;;;3.70;1.60;;;;;;;11.14;46.91;98677.09;10089708;29;20257;-80
2022/09/27 19:10:22;;;;;;;3.23;1.60;;;;;;;10.77;48.07;98671.25;10085437;29;20289;-81
2022/09/27 19:15:55;;;;;;;2.80;1.27;;;;;;;11.46;47.15;98677.56;10090937;29;20297;-79
2022/09/27 19:21:20;;;;;;;5.40;2.30;;;;;;;10.86;48.46;98676.63;10093179;29;20245;-81
2022/09/27 19:26:42;;;;;;;3.87;1.77;;;;;;;10.80;49.63;98673.34;10095306;29;20286;-81
2022/09/27 19:32:04;;;;;;;4.60;2.87;;;;;;;10.82;49.58;98670.16;10084927;29;20293;-81
2022/09/27 19:37:27;;;;;;;4.60;1.70;;;;;;;11.15;48.73;98653.34;10104725;29;20295;-80
2022/09/27 19:42:52;;;;;;;4.67;1.73;;;;;;;11.33;48.75;98655.59;10090504;29;20225;-80
2022/09/27 19:48:14;;;;;;;3.20;2.07;;;;;;;10.82;50.45;98653.22;10078803;29;20774;-81
2022/09/27 19:53:36;;;;;;;3.43;2.33;;;;;;;10.76;51.31;98646.28;10084031;29;20245;-80
2022/09/27 19:58:58;;;;;;;5.53;2.37;;;;;;;10.76;51.11;98644.28;10086540;29;20258;-80
2022/09/27 20:04:20;;;;;;;2.83;2.00;;;;;;;10.66;51.63;98632.84;10084245;29;20282;-80
2022/09/27 20:09:43;;;;;;;4.70;2.40;;;;;;;10.82;51.00;98636.31;10099728;29;20305;-81
2022/09/27 20:15:05;;;;;;;4.53;2.37;;;;;;;10.96;50.57;98630.88;10088084;29;20710;-79
2022/09/27 20:20:27;;;;;;;6.07;2.93;;;;;;;10.62;52.07;98631.94;10082072;29;20205;-79
2022/09/27 20:25:49;;;;;;;5.63;2.20;;;;;;;10.82;51.03;98619.41;10116495;29;20300;-79
2022/09/27 20:31:14;;;;;;;4.73;2.87;;;;;;;11.15;50.44;98613.84;10098230;29;20229;-79
2022/09/27 20:36:38;;;;;;;4.13;2.47;;;;;;;10.82;50.35;98617.41;10084667;29;20296;-79
2022/09/27 20:42:00;;;;;;;3.77;2.80;;;;;;;10.17;52.04;98609.06;10096735;29;20261;-79
2022/09/27 20:47:23;;;;;;;4.40;3.37;;;;;;;10.63;51.25;98605.41;10100490;29;20324;-79
2022/09/27 20:52:46;;;;;;;4.53;3.40;;;;;;;10.86;50.84;98601.34;10125327;29;20224;-79
2022/09/27 20:58:08;;;;;;;3.97;3.00;;;;;;;10.46;51.69;98601.88;10113916;29;20228;-80
2022/09/27 21:03:30;;;;;;;4.30;3.33;;;;;;;10.21;53.87;98595.00;10093736;29;20245;-79
2022/09/27 21:08:54;;;;;;;5.00;3.50;;;;;;;10.66;53.04;98585.75;10116906;29;20229;-81
2022/09/27 21:14:16;;;;;;;5.67;4.00;;;;;;;10.68;52.86;98579.75;10106651;29;20300;-81
2022/09/27 21:19:38;;;;;;;5.00;3.90;;;;;;;10.74;53.29;98583.84;10072024;29;20693;-82
2022/09/27 21:25:00;;;;;;;5.27;3.70;;;;;;;10.73;53.64;98571.75;10097530;29;20343;-81
2022/09/27 21:30:23;;;;;;;9.30;4.33;;;;;;;10.07;54.97;98577.88;10092975;29;20240;-81
2022/09/27 21:35:48;;;;;;;7.17;3.37;;;;;;;10.76;54.41;98567.38;10105389;29;20277;-82
2022/09/27 21:41:15;;;;;;;5.47;3.63;;;;;;;10.06;56.60;98553.72;10090343;29;20265;-82
2022/09/27 21:46:38;;;;;;;5.23;3.20;;;;;;;10.39;55.73;98545.47;10111376;29;20312;-82
2022/09/27 21:52:00;;;;;;;5.13;3.90;;;;;;;10.52;55.07;98544.06;10074585;29;20233;-82
2022/09/27 21:57:23;;;;;;;6.50;3.80;;;;;;;10.06;55.98;98536.84;10093971;29;20277;-82
2022/09/27 22:02:45;;;;;;;4.63;2.70;;;;;;;10.15;55.48;98523.34;10102212;29;20282;-82
2022/09/27 22:08:07;;;;;;;2.93;2.50;;;;;;;10.24;55.55;98520.25;10085765;29;20648;-82
2022/09/27 22:13:29;;;;;;;3.70;2.17;;;;;;;10.08;55.63;98503.50;10110769;29;20516;-83
2022/09/27 22:18:53;;;;;;;6.23;2.10;;;;;;;10.73;53.79;98504.13;10093412;29;20309;-83
2022/09/27 22:24:16;;;;;;;2.53;1.80;;;;;;;9.87;56.90;98505.97;10082011;29;20269;-83
2022/09/27 22:29:38;;;;;;;3.13;2.00;;;;;;;10.74;54.19;98493.66;10078436;29;20293;-83
2022/09/27 22:35:01;;;;;;;3.33;1.60;;;;;;;10.10;55.74;98489.88;10108306;29;20281;-82
2022/09/27 22:40:23;;;;;;;5.47;1.93;;;;;;;10.82;55.07;98495.41;10068121;29;20241;-83
2022/09/27 22:45:45;;;;;;;2.07;1.60;;;;;;;10.27;55.27;98489.34;10136120;29;20297;-82
2022/09/27 22:51:07;;;;;;;3.73;1.57;;;;;;;10.80;53.49;98492.16;10120882;29;20205;-83
2022/09/27 22:56:29;;;;;;;1.53;1.40;;;;;;;10.67;54.67;98487.94;10134790;29;21029;-82
2022/09/27 23:01:52;;;;;;;2.17;1.87;;;;;;;10.75;53.23;98486.84;10134201;29;20288;-83
2022/09/27 23:07:14;;;;;;;2.13;1.93;;;;;;;10.78;54.17;98480.44;10134081;29;20252;-82
2022/09/27 23:12:36;;;;;;;2.60;2.13;;;;;;;11.46;51.65;98476.44;10121119;29;20253;-82
2022/09/27 23:17:59;;;;;;;4.73;2.27;;;;;;;11.47;52.08;98478.88;10127120;29;20263;-82
2022/09/27 23:23:21;;;;;;;3.80;2.40;;;;;;;11.03;52.90;98473.13;10094613;29;20204;-82
2022/09/27 23:28:43;;;;;;;2.30;2.03;;;;;;;11.08;53.13;98475.63;10096318;29;20308;-82
2022/09/27 23:34:05;;;;;;;2.67;2.20;;;;;;;10.97;53.16;98474.66;10107604;29;20229;-82
2022/09/27 23:39:27;;;;;;;2.53;1.70;;;;;;;11.44;51.25;98474.00;10095178;29;20194;-81
2022/09/27 23:44:51;;;;;;;3.00;1.60;;;;;;;11.30;52.44;98471.03;10093827;29;20229;-81
2022/09/27 23:50:13;;;;;;;2.93;2.03;;;;;;;10.78;53.22;98470.00;10094073;29;20186;-82
2022/09/27 23:55:35;;;;;;;3.47;2.13;;;;;;;11.49;51.03;98461.56;10093914;29;20238;-82
